createdAt,value
2022-11-27T00:01:22.475Z,10.87
2022-11-27T00:03:52.383Z,10.27
2022-11-27T00:06:23.804Z,9.90
2022-11-27T00:08:52.453Z,9.53
2022-11-27T00:11:22.458Z,9.40
2022-11-27T00:13:51.392Z,8.90
2022-11-27T00:16:21.268Z,9.97
2022-11-27T00:18:50.549Z,8.53
2022-11-27T00:21:24.276Z,8.87
2022-11-27T00:23:54.056Z,7.87
2022-11-27T00:26:23.600Z,8.73
2022-11-27T00:28:52.558Z,9.93
2022-11-27T00:31:23.421Z,8.90
2022-11-27T00:33:51.587Z,9.60
2022-11-27T00:36:21.128Z,9.40
2022-11-27T00:38:49.324Z,8.43
2022-11-27T00:41:20.477Z,9.27
2022-11-27T00:43:49.048Z,8.30
2022-11-27T00:46:17.948Z,10.17
2022-11-27T00:48:46.244Z,8.47
2022-11-27T00:51:16.772Z,9.53
2022-11-27T00:53:46.333Z,7.63
2022-11-27T00:56:17.104Z,9.50
2022-11-27T00:58:45.429Z,10.17
2022-11-27T01:01:19.192Z,9.87
2022-11-27T01:03:48.391Z,9.00
2022-11-27T01:06:17.792Z,8.60
2022-11-27T01:08:48.156Z,9.10
2022-11-27T01:11:17.820Z,10.20
2022-11-27T01:13:46.530Z,8.10
2022-11-27T01:16:18.036Z,9.93
2022-11-27T01:18:48.283Z,8.97
2022-11-27T01:21:18.907Z,9.10
2022-11-27T01:23:49.711Z,9.50
2022-11-27T01:26:19.689Z,8.03
2022-11-27T01:28:48.280Z,11.70
2022-11-27T01:31:18.297Z,9.70
2022-11-27T01:33:47.730Z,10.10
2022-11-27T01:36:16.844Z,9.00
2022-11-27T01:38:45.195Z,8.00
2022-11-27T01:41:18.679Z,8.90
2022-11-27T01:43:48.428Z,8.67
2022-11-27T01:46:27.699Z,9.97
2022-11-27T01:49:00.776Z,9.43
2022-11-27T01:51:29.225Z,8.90
2022-11-27T01:53:57.883Z,8.20
2022-11-27T01:56:28.994Z,8.33
2022-11-27T01:58:59.283Z,8.50
2022-11-27T02:01:27.494Z,9.50
2022-11-27T02:03:58.905Z,8.70
2022-11-27T02:06:27.329Z,8.90
2022-11-27T02:08:56.752Z,8.47
2022-11-27T02:11:36.557Z,8.73
2022-11-27T02:14:15.921Z,9.80
2022-11-27T02:16:52.182Z,8.43
2022-11-27T02:19:30.696Z,9.90
2022-11-27T02:22:04.810Z,9.40
2022-11-27T02:24:48.875Z,9.30
2022-11-27T02:27:53.132Z,9.00
2022-11-27T02:30:22.745Z,9.63
2022-11-27T02:32:57.048Z,10.80
2022-11-27T02:35:31.187Z,9.30
2022-11-27T02:38:03.397Z,9.10
2022-11-27T02:40:37.874Z,9.33
2022-11-27T02:43:10.651Z,8.77
2022-11-27T02:45:44.686Z,11.20
2022-11-27T02:48:15.452Z,10.80
2022-11-27T02:50:46.443Z,13.10
2022-11-27T02:53:21.292Z,12.50
2022-11-27T02:55:51.239Z,13.00
2022-11-27T02:58:23.207Z,14.20
2022-11-27T03:00:56.652Z,12.77
2022-11-27T03:03:28.096Z,13.87
2022-11-27T03:06:01.893Z,12.67
2022-11-27T03:08:34.514Z,12.03
2022-11-27T03:11:05.574Z,12.70
2022-11-27T03:13:38.438Z,13.70
2022-11-27T03:16:14.281Z,12.53
2022-11-27T03:18:44.896Z,11.70
2022-11-27T03:21:29.642Z,12.03
2022-11-27T03:23:58.309Z,12.13
2022-11-27T03:26:27.155Z,12.63
2022-11-27T03:28:57.721Z,12.27
2022-11-27T03:31:27.803Z,13.23
2022-11-27T03:33:55.967Z,12.50
2022-11-27T03:36:24.349Z,11.63
2022-11-27T03:38:55.292Z,13.73
2022-11-27T03:41:35.380Z,14.10
2022-11-27T03:44:14.113Z,13.10
2022-11-27T03:46:52.213Z,13.07
2022-11-27T03:49:29.514Z,12.37
2022-11-27T03:52:02.800Z,13.13
2022-11-27T03:54:43.074Z,13.03
2022-11-27T03:57:19.295Z,14.17
2022-11-27T03:59:50.415Z,13.60
2022-11-27T04:02:31.439Z,13.30
2022-11-27T04:04:59.602Z,13.03
2022-11-27T04:07:28.082Z,14.30
2022-11-27T04:09:56.271Z,13.20
2022-11-27T04:12:24.406Z,14.50
2022-11-27T04:14:53.695Z,12.10
2022-11-27T04:17:23.215Z,15.17
2022-11-27T04:19:51.322Z,12.90
2022-11-27T04:22:19.644Z,13.40
2022-11-27T04:24:47.825Z,14.00
2022-11-27T04:27:16.253Z,18.40
2022-11-27T04:29:44.967Z,27.13
2022-11-27T04:32:13.193Z,26.80
2022-11-27T04:34:42.752Z,21.50
2022-11-27T04:37:11.003Z,20.90
2022-11-27T04:39:39.137Z,18.90
2022-11-27T04:42:07.446Z,17.97
2022-11-27T04:44:35.564Z,18.30
2022-11-27T04:47:04.066Z,21.17
2022-11-27T04:49:32.360Z,31.63
2022-11-27T04:52:01.843Z,31.20
2022-11-27T04:54:29.959Z,22.20
2022-11-27T04:56:58.127Z,17.83
2022-11-27T04:59:26.304Z,17.20
2022-11-27T05:01:54.493Z,18.10
2022-11-27T05:04:22.677Z,16.87
2022-11-27T05:06:50.916Z,18.33
2022-11-27T05:09:20.571Z,29.00
2022-11-27T05:11:48.718Z,27.97
2022-11-27T05:14:17.898Z,24.37
2022-11-27T05:16:49.055Z,17.60
2022-11-27T05:19:19.114Z,17.03
2022-11-27T05:21:48.195Z,16.83
2022-11-27T05:24:18.005Z,16.43
2022-11-27T05:26:48.211Z,16.13
2022-11-27T05:29:17.317Z,16.80
2022-11-27T05:31:45.981Z,18.13
2022-11-27T05:34:15.131Z,17.80
2022-11-27T05:36:43.776Z,15.10
2022-11-27T05:39:12.640Z,16.87
2022-11-27T05:41:43.149Z,15.10
2022-11-27T05:44:14.702Z,16.67
2022-11-27T05:46:44.525Z,18.33
2022-11-27T05:49:15.183Z,16.10
2022-11-27T05:51:50.449Z,16.50
2022-11-27T05:54:19.726Z,15.67
2022-11-27T05:56:47.895Z,14.77
2022-11-27T05:59:17.460Z,15.77
2022-11-27T06:01:45.652Z,16.50
2022-11-27T06:04:13.823Z,14.37
2022-11-27T06:06:41.978Z,14.70
2022-11-27T06:09:13.138Z,14.03
2022-11-27T06:11:41.901Z,15.67
2022-11-27T06:14:10.466Z,15.53
2022-11-27T06:16:39.963Z,15.20
2022-11-27T06:19:08.968Z,14.90
2022-11-27T06:21:37.263Z,13.73
2022-11-27T06:24:05.539Z,16.13
2022-11-27T06:26:34.631Z,15.70
2022-11-27T06:29:02.969Z,15.97
2022-11-27T06:31:32.913Z,16.87
2022-11-27T06:34:03.400Z,18.00
2022-11-27T06:36:34.484Z,17.03
2022-11-27T06:39:04.097Z,16.07
2022-11-27T06:41:33.459Z,15.97
2022-11-27T06:44:02.843Z,16.70
2022-11-27T06:46:31.439Z,17.77
2022-11-27T06:48:59.727Z,15.13
2022-11-27T06:51:31.830Z,15.90
2022-11-27T06:54:01.677Z,16.50
2022-11-27T06:56:31.795Z,15.57
2022-11-27T06:59:01.809Z,14.73
2022-11-27T07:01:31.901Z,14.40
2022-11-27T07:04:00.254Z,15.83
2022-11-27T07:06:29.812Z,15.10
2022-11-27T07:08:58.494Z,16.23
2022-11-27T07:11:29.689Z,20.50
2022-11-27T07:13:59.735Z,19.83
2022-11-27T07:16:29.388Z,15.93
2022-11-27T07:19:02.552Z,17.57
2022-11-27T07:21:32.295Z,13.60
2022-11-27T07:24:01.772Z,18.90
2022-11-27T07:26:31.038Z,15.27
2022-11-27T07:28:59.481Z,17.80
2022-11-27T07:31:30.157Z,14.20
2022-11-27T07:33:58.948Z,13.90
2022-11-27T07:36:29.687Z,13.70
2022-11-27T07:38:59.844Z,14.03
2022-11-27T07:41:33.454Z,13.43
2022-11-27T07:44:02.150Z,14.63
2022-11-27T07:46:30.846Z,13.40
2022-11-27T07:49:00.406Z,12.27
2022-11-27T07:51:29.267Z,13.47
2022-11-27T07:54:00.239Z,14.87
2022-11-27T07:56:28.745Z,13.20
2022-11-27T07:58:57.963Z,14.57
2022-11-27T08:01:26.209Z,15.40
2022-11-27T08:03:54.412Z,13.67
2022-11-27T08:06:24.530Z,14.80
2022-11-27T08:08:53.344Z,16.20
2022-11-27T08:11:24.936Z,14.97
2022-11-27T08:13:57.375Z,14.70
2022-11-27T08:16:25.666Z,15.50
2022-11-27T08:18:53.967Z,16.70
2022-11-27T08:21:22.581Z,14.10
2022-11-27T08:23:51.094Z,16.97
2022-11-27T08:26:19.549Z,15.90
2022-11-27T08:28:49.061Z,15.37
2022-11-27T08:31:18.065Z,15.70
2022-11-27T08:33:46.283Z,16.60
2022-11-27T08:36:18.124Z,16.60
2022-11-27T08:38:47.030Z,15.73
2022-11-27T08:41:15.487Z,15.30
2022-11-27T08:43:43.643Z,17.03
2022-11-27T08:46:13.582Z,16.70
2022-11-27T08:48:41.875Z,15.03
2022-11-27T08:51:12.151Z,15.70
2022-11-27T08:53:40.702Z,16.77
2022-11-27T08:56:10.458Z,14.83
2022-11-27T08:58:40.946Z,15.13
2022-11-27T09:01:11.876Z,16.20
2022-11-27T09:03:41.460Z,16.47
2022-11-27T09:06:11.512Z,16.10
2022-11-27T09:08:40.032Z,14.37
2022-11-27T09:11:09.091Z,13.80
2022-11-27T09:13:40.128Z,13.90
2022-11-27T09:16:11.258Z,13.40
2022-11-27T09:18:41.398Z,13.33
2022-11-27T09:21:11.288Z,13.50
2022-11-27T09:23:40.143Z,16.90
2022-11-27T09:26:11.126Z,13.90
2022-11-27T09:28:40.544Z,14.87
2022-11-27T09:31:11.077Z,13.73
2022-11-27T09:33:41.823Z,13.50
2022-11-27T09:36:12.297Z,15.47
2022-11-27T09:38:41.064Z,12.80
2022-11-27T09:41:27.576Z,13.90
2022-11-27T09:44:00.352Z,14.07
2022-11-27T09:46:33.130Z,16.50
2022-11-27T09:49:07.137Z,11.90
2022-11-27T09:51:38.872Z,12.77
2022-11-27T09:54:16.409Z,12.53
2022-11-27T09:56:48.025Z,12.83
2022-11-27T09:59:19.239Z,10.70
2022-11-27T10:01:51.129Z,12.03
2022-11-27T10:04:22.225Z,11.43
2022-11-27T10:07:10.229Z,10.83
2022-11-27T10:09:51.084Z,12.50
2022-11-27T10:12:25.215Z,12.57
2022-11-27T10:15:04.020Z,11.57
2022-11-27T10:17:38.712Z,11.83
2022-11-27T10:20:19.813Z,11.70
2022-11-27T10:22:57.284Z,10.70
2022-11-27T10:25:30.794Z,10.80
2022-11-27T10:28:07.138Z,10.60
2022-11-27T10:30:45.036Z,10.87
2022-11-27T10:33:21.144Z,11.70
2022-11-27T10:35:51.235Z,9.97
2022-11-27T10:38:23.227Z,10.57
2022-11-27T10:41:03.540Z,10.23
2022-11-27T10:43:32.267Z,9.63
2022-11-27T10:46:03.884Z,9.60
2022-11-27T10:48:32.088Z,11.37
2022-11-27T10:51:01.696Z,9.20
2022-11-27T10:53:32.836Z,10.43
2022-11-27T10:56:28.264Z,9.83
2022-11-27T10:58:59.027Z,9.10
2022-11-27T11:01:29.633Z,9.17
2022-11-27T11:04:18.697Z,10.67
2022-11-27T11:06:56.588Z,8.80
2022-11-27T11:09:27.350Z,9.73
2022-11-27T11:11:55.713Z,9.13
2022-11-27T11:14:26.305Z,8.63
2022-11-27T11:16:55.556Z,10.03
2022-11-27T11:19:26.211Z,7.77
2022-11-27T11:21:55.752Z,9.03
2022-11-27T11:24:28.642Z,8.50
2022-11-27T11:27:00.057Z,8.37
2022-11-27T11:29:33.708Z,8.80
2022-11-27T11:32:08.266Z,7.70
2022-11-27T11:34:42.212Z,9.20
2022-11-27T11:37:22.190Z,10.10
2022-11-27T11:39:57.571Z,8.53
2022-11-27T11:42:28.002Z,8.37
2022-11-27T11:45:02.425Z,8.30
2022-11-27T11:47:30.967Z,7.80
2022-11-27T11:49:59.684Z,9.27
2022-11-27T11:52:42.676Z,7.10
2022-11-27T11:55:18.606Z,6.80
2022-11-27T11:58:03.872Z,8.30
2022-11-27T12:00:58.492Z,6.90
2022-11-27T12:03:40.166Z,6.60
2022-11-27T12:06:27.924Z,7.10
2022-11-27T12:09:07.784Z,6.60
2022-11-27T12:11:45.340Z,6.50
2022-11-27T12:14:25.791Z,6.90
2022-11-27T12:17:07.219Z,7.00
2022-11-27T12:19:51.320Z,6.30
2022-11-27T12:22:37.177Z,5.30
2022-11-27T12:25:23.120Z,4.57
2022-11-27T12:28:06.031Z,4.87
2022-11-27T12:30:45.480Z,4.60
2022-11-27T12:33:31.540Z,5.27
2022-11-27T12:36:09.302Z,5.13
2022-11-27T12:38:50.734Z,6.67
2022-11-27T12:41:47.783Z,6.70
2022-11-27T12:44:23.533Z,5.53
2022-11-27T12:46:59.415Z,7.10
2022-11-27T12:49:33.379Z,7.10
2022-11-27T12:52:10.333Z,7.63
2022-11-27T12:54:43.660Z,8.13
2022-11-27T12:57:19.112Z,7.87
2022-11-27T12:59:51.683Z,6.30
2022-11-27T13:02:29.705Z,6.70
2022-11-27T13:05:02.567Z,7.07
2022-11-27T13:07:40.197Z,6.27
2022-11-27T13:10:20.348Z,5.90
2022-11-27T13:12:57.127Z,8.63
2022-11-27T13:15:31.326Z,5.83
2022-11-27T13:18:08.472Z,6.10
2022-11-27T13:20:41.153Z,5.67
2022-11-27T13:23:09.258Z,7.40
2022-11-27T13:25:44.912Z,7.80
2022-11-27T13:28:24.655Z,6.33
2022-11-27T13:30:55.298Z,6.67
2022-11-27T13:33:35.525Z,6.63
2022-11-27T13:36:07.076Z,6.90
2022-11-27T13:38:38.184Z,7.47
2022-11-27T13:41:07.036Z,7.17
2022-11-27T13:43:43.381Z,7.40
2022-11-27T13:46:20.217Z,6.50
2022-11-27T13:48:51.474Z,7.57
2022-11-27T13:51:28.911Z,7.60
2022-11-27T13:54:08.456Z,6.80
2022-11-27T13:56:36.688Z,7.97
2022-11-27T13:59:16.112Z,7.07
2022-11-27T14:01:55.764Z,7.27
2022-11-27T14:04:23.967Z,7.30
2022-11-27T14:06:55.074Z,7.83
2022-11-27T14:09:34.487Z,6.50
2022-11-27T14:12:03.529Z,8.30
2022-11-27T14:14:33.098Z,6.80
2022-11-27T14:17:04.867Z,7.63
2022-11-27T14:19:35.596Z,8.07
2022-11-27T14:22:15.342Z,7.37
2022-11-27T14:24:45.904Z,7.00
2022-11-27T14:27:19.311Z,8.23
2022-11-27T14:29:53.333Z,7.60
2022-11-27T14:32:22.348Z,6.40
2022-11-27T14:34:50.614Z,7.10
2022-11-27T14:37:24.619Z,7.07
2022-11-27T14:39:53.338Z,6.60
2022-11-27T14:42:28.145Z,8.20
2022-11-27T14:45:06.196Z,6.90
2022-11-27T14:47:35.253Z,7.03
2022-11-27T14:50:04.265Z,7.10
2022-11-27T14:52:32.772Z,7.37
2022-11-27T14:55:03.520Z,9.43
2022-11-27T14:57:32.186Z,6.57
2022-11-27T15:00:16.080Z,8.30
2022-11-27T15:02:45.291Z,7.10
2022-11-27T15:05:22.022Z,7.57
2022-11-27T15:07:53.100Z,7.23
2022-11-27T15:10:31.369Z,8.77
2022-11-27T15:13:01.063Z,7.53
2022-11-27T15:15:33.807Z,7.90
2022-11-27T15:18:05.958Z,8.00
2022-11-27T15:20:38.592Z,9.03
2022-11-27T15:23:17.355Z,9.97
2022-11-27T15:25:48.562Z,8.90
2022-11-27T15:28:29.361Z,8.50
2022-11-27T15:30:59.090Z,9.60
2022-11-27T15:33:29.246Z,8.37
2022-11-27T15:36:16.321Z,7.73
2022-11-27T15:38:45.461Z,8.50
2022-11-27T15:41:22.221Z,8.20
2022-11-27T15:43:50.491Z,8.93
2022-11-27T15:46:25.984Z,8.13
2022-11-27T15:48:54.676Z,8.97
2022-11-27T15:51:23.072Z,7.50
2022-11-27T15:53:51.520Z,8.40
2022-11-27T15:56:19.849Z,7.33
2022-11-27T15:58:48.201Z,7.03
2022-11-27T16:01:16.389Z,7.03
2022-11-27T16:03:45.866Z,8.87
2022-11-27T16:06:14.007Z,8.43
2022-11-27T16:08:42.108Z,8.63
2022-11-27T16:11:13.542Z,7.37
2022-11-27T16:13:41.753Z,8.40
2022-11-27T16:16:11.654Z,8.83
2022-11-27T16:18:39.816Z,9.73
2022-11-27T16:21:11.246Z,10.97
2022-11-27T16:23:41.061Z,11.00
2022-11-27T16:26:12.087Z,11.47
2022-11-27T16:28:40.560Z,11.50
2022-11-27T16:31:15.035Z,10.33
2022-11-27T16:33:43.378Z,11.30
2022-11-27T16:36:15.248Z,11.67
2022-11-27T16:38:44.987Z,11.93
2022-11-27T16:41:15.670Z,14.60
2022-11-27T16:43:46.246Z,13.67
2022-11-27T16:46:17.766Z,13.93
2022-11-27T16:48:48.115Z,13.60
2022-11-27T16:51:21.797Z,15.77
2022-11-27T16:53:52.975Z,13.47
2022-11-27T16:56:23.885Z,13.30
2022-11-27T16:58:59.368Z,15.60
2022-11-27T17:01:34.224Z,13.70
2022-11-27T17:04:03.658Z,12.43
2022-11-27T17:06:34.495Z,15.07
2022-11-27T17:09:05.745Z,14.50
2022-11-27T17:11:36.291Z,13.10
2022-11-27T17:14:07.272Z,15.00
2022-11-27T17:16:38.822Z,14.63
2022-11-27T17:19:07.019Z,15.57
2022-11-27T17:21:36.882Z,14.70
2022-11-27T17:24:14.337Z,16.00
2022-11-27T17:26:46.756Z,16.97
2022-11-27T17:29:17.400Z,16.20
2022-11-27T17:31:45.642Z,16.37
2022-11-27T17:34:15.908Z,16.80
2022-11-27T17:36:50.196Z,15.40
2022-11-27T17:39:18.512Z,16.27
2022-11-27T17:41:46.713Z,16.70
2022-11-27T17:44:14.938Z,17.17
2022-11-27T17:46:45.374Z,15.30
2022-11-27T17:49:14.470Z,15.03
2022-11-27T17:51:43.133Z,16.97
2022-11-27T17:54:12.633Z,14.47
2022-11-27T17:56:41.364Z,14.07
2022-11-27T17:59:11.024Z,14.90
2022-11-27T18:01:40.922Z,15.47
2022-11-27T18:04:10.528Z,16.30
2022-11-27T18:06:40.123Z,14.07
2022-11-27T18:09:11.334Z,14.20
2022-11-27T18:11:40.906Z,16.83
2022-11-27T18:14:13.093Z,20.00
2022-11-27T18:16:42.430Z,15.30
2022-11-27T18:19:12.215Z,14.50
2022-11-27T18:21:41.077Z,13.90
2022-11-27T18:24:25.251Z,14.60
2022-11-27T18:27:11.545Z,13.77
2022-11-27T18:29:42.591Z,17.97
2022-11-27T18:32:12.223Z,18.10
2022-11-27T18:34:41.513Z,19.60
2022-11-27T18:37:10.036Z,18.60
2022-11-27T18:39:38.288Z,19.80
2022-11-27T18:42:07.907Z,21.37
2022-11-27T18:44:44.392Z,21.27
2022-11-27T18:47:14.636Z,24.10
2022-11-27T18:49:44.584Z,21.63
2022-11-27T18:52:14.129Z,24.00
2022-11-27T18:54:42.319Z,21.83
2022-11-27T18:57:11.895Z,20.27
2022-11-27T18:59:40.748Z,19.90
2022-11-27T19:02:10.844Z,20.63
2022-11-27T19:04:39.393Z,19.70
2022-11-27T19:07:07.951Z,21.93
2022-11-27T19:09:36.123Z,21.27
2022-11-27T19:12:05.624Z,18.50
2022-11-27T19:14:36.306Z,21.07
2022-11-27T19:17:04.469Z,19.97
2022-11-27T19:22:21.312Z,19.07
2022-11-27T19:24:50.201Z,20.13
2022-11-27T19:27:19.485Z,18.50
2022-11-27T19:29:50.582Z,19.00
2022-11-27T19:32:18.941Z,19.13
2022-11-27T19:34:47.144Z,17.93
2022-11-27T19:37:21.290Z,19.20
2022-11-27T19:39:56.941Z,18.03
2022-11-27T19:42:25.948Z,17.13
2022-11-27T19:44:56.413Z,17.07
2022-11-27T19:47:24.655Z,17.47
2022-11-27T19:49:52.846Z,16.00
2022-11-27T19:52:21.297Z,15.80
2022-11-27T19:54:50.567Z,16.60
2022-11-27T19:57:18.962Z,17.67
2022-11-27T19:59:47.145Z,16.77
2022-11-27T20:02:16.733Z,16.83
2022-11-27T20:04:45.166Z,16.43
2022-11-27T20:07:13.425Z,15.10
2022-11-27T20:09:41.573Z,17.03
2022-11-27T20:12:09.698Z,17.10
2022-11-27T20:14:38.475Z,16.80
2022-11-27T20:17:07.499Z,17.33
2022-11-27T20:19:37.020Z,16.33
2022-11-27T20:22:05.211Z,16.07
2022-11-27T20:24:34.114Z,15.73
2022-11-27T20:27:02.487Z,17.73
2022-11-27T20:29:31.294Z,17.73
2022-11-27T20:31:59.621Z,17.20
2022-11-27T20:34:27.911Z,16.47
2022-11-27T20:36:57.385Z,16.70
2022-11-27T20:39:25.627Z,18.57
2022-11-27T20:41:55.399Z,15.83
2022-11-27T20:44:25.049Z,18.00
2022-11-27T20:46:55.136Z,16.13
2022-11-27T20:49:24.410Z,17.10
2022-11-27T20:51:52.710Z,18.30
2022-11-27T20:54:25.015Z,17.50
2022-11-27T20:56:53.299Z,15.10
2022-11-27T20:59:22.331Z,17.00
2022-11-27T21:01:51.466Z,17.60
2022-11-27T21:04:24.784Z,15.33
2022-11-27T21:06:54.053Z,15.10
2022-11-27T21:09:24.858Z,15.30
2022-11-27T21:11:53.009Z,15.10
2022-11-27T21:14:21.231Z,16.13
2022-11-27T21:16:51.318Z,15.90
2022-11-27T21:19:22.611Z,16.40
2022-11-27T21:21:52.964Z,16.47
2022-11-27T21:24:25.708Z,19.57
2022-11-27T21:26:54.223Z,17.93
2022-11-27T21:29:25.766Z,15.03
2022-11-27T21:31:56.904Z,17.43
2022-11-27T21:34:25.905Z,15.83
2022-11-27T21:36:54.499Z,15.27
2022-11-27T21:39:25.500Z,15.33
2022-11-27T21:41:55.779Z,16.27
2022-11-27T21:44:25.440Z,15.40
2022-11-27T21:46:54.387Z,15.47
2022-11-27T21:49:23.021Z,16.90
2022-11-27T21:51:53.245Z,15.37
2022-11-27T21:54:26.332Z,17.10
2022-11-27T21:56:54.683Z,17.57
2022-11-27T21:59:22.942Z,19.40
2022-11-27T22:01:51.372Z,18.53
2022-11-27T22:04:20.096Z,19.10
2022-11-27T22:06:48.423Z,19.63
2022-11-27T22:09:16.605Z,19.40
2022-11-27T22:11:47.211Z,18.97
2022-11-27T22:14:16.982Z,18.50
2022-11-27T22:16:46.921Z,19.57
2022-11-27T22:19:16.992Z,18.93
2022-11-27T22:21:45.738Z,17.93
2022-11-27T22:24:19.520Z,17.60
2022-11-27T22:26:53.362Z,17.00
2022-11-27T22:29:21.592Z,15.90
2022-11-27T22:31:49.723Z,17.93
2022-11-27T22:34:17.946Z,17.27
2022-11-27T22:36:47.438Z,18.57
2022-11-27T22:39:15.821Z,16.63
2022-11-27T22:41:45.192Z,17.43
2022-11-27T22:44:20.864Z,15.40
2022-11-27T22:46:50.464Z,16.33
2022-11-27T22:49:19.135Z,16.30
2022-11-27T22:51:47.888Z,15.40
2022-11-27T22:54:17.856Z,15.70
2022-11-27T22:56:47.874Z,15.53
2022-11-27T22:59:32.280Z,17.07
2022-11-27T23:02:03.359Z,13.50
2022-11-27T23:04:31.834Z,14.53
2022-11-27T23:07:00.105Z,14.90
2022-11-27T23:09:29.627Z,14.57
2022-11-27T23:12:00.176Z,13.47
2022-11-27T23:14:29.870Z,13.83
2022-11-27T23:16:58.138Z,14.90
2022-11-27T23:19:26.341Z,13.17
2022-11-27T23:21:54.472Z,15.00
2022-11-27T23:24:22.993Z,15.47
2022-11-27T23:26:51.236Z,15.90
2022-11-27T23:29:19.365Z,15.10
2022-11-27T23:31:51.062Z,14.90
2022-11-27T23:34:19.247Z,14.60
2022-11-27T23:36:52.657Z,14.97
2022-11-27T23:39:20.974Z,17.30
2022-11-27T23:41:49.640Z,16.43
2022-11-27T23:44:17.961Z,15.77
2022-11-27T23:46:46.204Z,16.20
2022-11-27T23:49:17.469Z,18.37
2022-11-27T23:51:45.644Z,16.20
2022-11-27T23:54:13.776Z,19.33
2022-11-27T23:56:43.057Z,17.47
2022-11-27T23:59:11.626Z,19.03
